sensor_id;sensor_type;location;lat;lon;timestamp;pressure;altitude;pressure_sealevel;temperature;humidity
6218;BME280;3142;48.206;11.550;2023-02-16T00:00:29;96799.84;;;3.26;83.26
6218;BME280;3142;48.206;11.550;2023-02-16T00:02:56;96798.22;;;3.25;83.21
6218;BME280;3142;48.206;11.550;2023-02-16T00:05:24;96795.34;;;3.19;82.72
6218;BME280;3142;48.206;11.550;2023-02-16T00:07:51;96795.81;;;3.13;81.96
6218;BME280;3142;48.206;11.550;2023-02-16T00:10:18;96805.34;;;3.12;82.89
6218;BME280;3142;48.206;11.550;2023-02-16T00:12:46;96790.72;;;3.22;82.94
6218;BME280;3142;48.206;11.550;2023-02-16T00:15:41;96792.34;;;3.23;81.93
6218;BME280;3142;48.206;11.550;2023-02-16T00:18:14;96790.16;;;3.19;82.26
6218;BME280;3142;48.206;11.550;2023-02-16T00:20:41;96785.69;;;3.21;81.29
6218;BME280;3142;48.206;11.550;2023-02-16T00:23:08;96784.66;;;3.12;82.01
6218;BME280;3142;48.206;11.550;2023-02-16T00:25:35;96788.59;;;3.07;82.76
6218;BME280;3142;48.206;11.550;2023-02-16T00:28:04;96776.47;;;3.07;81.86
6218;BME280;3142;48.206;11.550;2023-02-16T00:30:33;96766.47;;;2.93;81.66
6218;BME280;3142;48.206;11.550;2023-02-16T00:32:59;96771.63;;;2.93;82.43
6218;BME280;3142;48.206;11.550;2023-02-16T00:35:25;96764.31;;;2.98;81.42
6218;BME280;3142;48.206;11.550;2023-02-16T00:37:52;96763.88;;;2.93;81.38
6218;BME280;3142;48.206;11.550;2023-02-16T00:40:18;96761.69;;;2.88;81.21
6218;BME280;3142;48.206;11.550;2023-02-16T00:42:46;96767.06;;;2.85;81.46
6218;BME280;3142;48.206;11.550;2023-02-16T00:45:16;96757.25;;;2.79;81.00
6218;BME280;3142;48.206;11.550;2023-02-16T00:47:45;96757.31;;;2.68;80.60
6218;BME280;3142;48.206;11.550;2023-02-16T00:50:18;96760.00;;;2.66;81.49
6218;BME280;3142;48.206;11.550;2023-02-16T00:52:45;96762.22;;;2.71;81.29
6218;BME280;3142;48.206;11.550;2023-02-16T00:55:14;96761.91;;;2.85;80.66
6218;BME280;3142;48.206;11.550;2023-02-16T00:57:42;96762.78;;;2.95;81.28
6218;BME280;3142;48.206;11.550;2023-02-16T01:00:16;96763.22;;;3.01;80.25
6218;BME280;3142;48.206;11.550;2023-02-16T01:02:45;96756.22;;;3.12;79.37
6218;BME280;3142;48.206;11.550;2023-02-16T01:05:12;96749.25;;;3.03;79.39
6218;BME280;3142;48.206;11.550;2023-02-16T01:07:39;96742.00;;;2.76;79.90
6218;BME280;3142;48.206;11.550;2023-02-16T01:10:24;96750.63;;;2.65;80.08
6218;BME280;3142;48.206;11.550;2023-02-16T01:13:10;96756.53;;;2.56;79.37
6218;BME280;3142;48.206;11.550;2023-02-16T01:15:38;96757.63;;;2.43;79.28
6218;BME280;3142;48.206;11.550;2023-02-16T01:18:05;96760.72;;;2.36;79.69
6218;BME280;3142;48.206;11.550;2023-02-16T01:20:33;96756.94;;;2.41;79.66
6218;BME280;3142;48.206;11.550;2023-02-16T01:23:00;96768.91;;;2.42;79.63
6218;BME280;3142;48.206;11.550;2023-02-16T01:25:27;96772.94;;;2.34;79.95
6218;BME280;3142;48.206;11.550;2023-02-16T01:27:53;96774.28;;;2.50;79.08
6218;BME280;3142;48.206;11.550;2023-02-16T01:30:21;96769.94;;;2.50;78.82
6218;BME280;3142;48.206;11.550;2023-02-16T01:32:49;96773.31;;;2.62;77.30
6218;BME280;3142;48.206;11.550;2023-02-16T01:35:17;96772.31;;;2.42;77.37
6218;BME280;3142;48.206;11.550;2023-02-16T01:37:43;96772.72;;;2.15;77.83
6218;BME280;3142;48.206;11.550;2023-02-16T01:40:19;96769.97;;;1.96;78.45
6218;BME280;3142;48.206;11.550;2023-02-16T01:42:51;96779.47;;;1.95;79.10
6218;BME280;3142;48.206;11.550;2023-02-16T01:45:26;96769.19;;;2.27;78.86
6218;BME280;3142;48.206;11.550;2023-02-16T01:48:02;96766.53;;;2.50;77.76
6218;BME280;3142;48.206;11.550;2023-02-16T01:50:39;96759.78;;;2.58;76.94
6218;BME280;3142;48.206;11.550;2023-02-16T01:53:13;96755.09;;;2.63;76.86
6218;BME280;3142;48.206;11.550;2023-02-16T01:55:46;96758.00;;;2.70;76.29
6218;BME280;3142;48.206;11.550;2023-02-16T01:58:18;96762.66;;;2.76;75.73
6218;BME280;3142;48.206;11.550;2023-02-16T02:01:19;96762.72;;;2.86;75.36
6218;BME280;3142;48.206;11.550;2023-02-16T02:03:57;96755.44;;;2.59;75.10
6218;BME280;3142;48.206;11.550;2023-02-16T02:06:40;96762.44;;;2.47;75.80
6218;BME280;3142;48.206;11.550;2023-02-16T02:09:11;96747.13;;;2.55;75.72
6218;BME280;3142;48.206;11.550;2023-02-16T02:11:42;96744.28;;;2.37;75.82
6218;BME280;3142;48.206;11.550;2023-02-16T02:14:14;96742.06;;;2.33;76.61
6218;BME280;3142;48.206;11.550;2023-02-16T02:16:52;96746.53;;;2.31;76.19
6218;BME280;3142;48.206;11.550;2023-02-16T02:19:20;96746.19;;;2.24;76.47
6218;BME280;3142;48.206;11.550;2023-02-16T02:22:04;96741.41;;;2.20;76.72
6218;BME280;3142;48.206;11.550;2023-02-16T02:25:17;96734.81;;;2.27;77.14
6218;BME280;3142;48.206;11.550;2023-02-16T02:27:52;96750.16;;;2.28;77.03
6218;BME280;3142;48.206;11.550;2023-02-16T02:30:33;96740.84;;;2.48;76.01
6218;BME280;3142;48.206;11.550;2023-02-16T02:33:25;96748.69;;;2.47;76.09
6218;BME280;3142;48.206;11.550;2023-02-16T02:36:08;96734.72;;;2.49;75.84
6218;BME280;3142;48.206;11.550;2023-02-16T02:38:47;96732.59;;;2.54;75.04
6218;BME280;3142;48.206;11.550;2023-02-16T02:41:23;96729.69;;;2.48;75.79
6218;BME280;3142;48.206;11.550;2023-02-16T02:44:17;96736.25;;;2.52;74.96
6218;BME280;3142;48.206;11.550;2023-02-16T02:46:45;96730.19;;;2.42;76.11
6218;BME280;3142;48.206;11.550;2023-02-16T02:49:12;96726.56;;;2.33;75.91
6218;BME280;3142;48.206;11.550;2023-02-16T02:51:38;96728.16;;;2.13;75.24
6218;BME280;3142;48.206;11.550;2023-02-16T02:54:07;96733.22;;;2.03;76.07
6218;BME280;3142;48.206;11.550;2023-02-16T02:56:56;96738.19;;;1.95;75.95
6218;BME280;3142;48.206;11.550;2023-02-16T02:59:46;96733.50;;;1.78;76.31
6218;BME280;3142;48.206;11.550;2023-02-16T03:02:33;96732.16;;;1.52;76.50
6218;BME280;3142;48.206;11.550;2023-02-16T03:05:02;96735.78;;;1.38;76.68
6218;BME280;3142;48.206;11.550;2023-02-16T03:07:31;96730.03;;;1.45;76.98
6218;BME280;3142;48.206;11.550;2023-02-16T03:10:15;96731.34;;;1.51;76.78
6218;BME280;3142;48.206;11.550;2023-02-16T03:12:56;96726.28;;;1.61;76.63
6218;BME280;3142;48.206;11.550;2023-02-16T03:15:26;96727.78;;;1.74;76.33
6218;BME280;3142;48.206;11.550;2023-02-16T03:17:54;96728.97;;;1.70;76.04
6218;BME280;3142;48.206;11.550;2023-02-16T03:20:41;96731.53;;;1.70;76.18
6218;BME280;3142;48.206;11.550;2023-02-16T03:23:25;96729.28;;;1.77;76.45
6218;BME280;3142;48.206;11.550;2023-02-16T03:26:10;96734.94;;;1.82;76.50
6218;BME280;3142;48.206;11.550;2023-02-16T03:28:55;96734.00;;;1.83;75.75
6218;BME280;3142;48.206;11.550;2023-02-16T03:31:43;96736.44;;;1.85;76.37
6218;BME280;3142;48.206;11.550;2023-02-16T03:34:10;96735.72;;;1.94;75.40
6218;BME280;3142;48.206;11.550;2023-02-16T03:36:39;96731.13;;;2.08;75.50
6218;BME280;3142;48.206;11.550;2023-02-16T03:39:07;96734.97;;;2.14;74.27
6218;BME280;3142;48.206;11.550;2023-02-16T03:41:38;96736.72;;;2.14;74.33
6218;BME280;3142;48.206;11.550;2023-02-16T03:44:05;96741.88;;;2.14;74.13
6218;BME280;3142;48.206;11.550;2023-02-16T03:46:31;96739.19;;;2.15;73.86
6218;BME280;3142;48.206;11.550;2023-02-16T03:48:59;96744.59;;;2.12;73.73
6218;BME280;3142;48.206;11.550;2023-02-16T03:51:25;96753.88;;;2.03;74.21
6218;BME280;3142;48.206;11.550;2023-02-16T03:53:52;96755.06;;;1.99;74.61
6218;BME280;3142;48.206;11.550;2023-02-16T03:56:19;96756.56;;;2.02;74.16
6218;BME280;3142;48.206;11.550;2023-02-16T03:58:45;96762.78;;;2.11;73.89
6218;BME280;3142;48.206;11.550;2023-02-16T04:01:12;96762.09;;;2.08;73.24
6218;BME280;3142;48.206;11.550;2023-02-16T04:03:38;96764.34;;;1.91;73.68
6218;BME280;3142;48.206;11.550;2023-02-16T04:06:06;96761.66;;;1.81;74.02
6218;BME280;3142;48.206;11.550;2023-02-16T04:08:33;96750.53;;;1.81;74.06
6218;BME280;3142;48.206;11.550;2023-02-16T04:10:59;96756.50;;;1.70;73.78
6218;BME280;3142;48.206;11.550;2023-02-16T04:13:46;96753.69;;;1.62;74.42
6218;BME280;3142;48.206;11.550;2023-02-16T04:16:11;96762.75;;;1.67;74.51
6218;BME280;3142;48.206;11.550;2023-02-16T04:18:38;96756.38;;;1.71;74.44
6218;BME280;3142;48.206;11.550;2023-02-16T04:21:05;96756.88;;;1.65;73.92
6218;BME280;3142;48.206;11.550;2023-02-16T04:23:32;96757.09;;;1.62;73.80
6218;BME280;3142;48.206;11.550;2023-02-16T04:25:58;96749.97;;;1.55;73.87
6218;BME280;3142;48.206;11.550;2023-02-16T04:28:24;96756.63;;;1.46;73.74
6218;BME280;3142;48.206;11.550;2023-02-16T04:30:51;96757.81;;;1.42;73.66
6218;BME280;3142;48.206;11.550;2023-02-16T04:33:17;96758.25;;;1.36;73.90
6218;BME280;3142;48.206;11.550;2023-02-16T04:35:44;96754.06;;;1.24;73.44
6218;BME280;3142;48.206;11.550;2023-02-16T04:38:11;96755.69;;;1.13;73.74
6218;BME280;3142;48.206;11.550;2023-02-16T04:40:38;96756.13;;;1.07;74.23
6218;BME280;3142;48.206;11.550;2023-02-16T04:43:04;96760.25;;;1.10;74.42
6218;BME280;3142;48.206;11.550;2023-02-16T04:45:31;96764.69;;;1.08;74.30
6218;BME280;3142;48.206;11.550;2023-02-16T04:47:57;96762.72;;;1.11;73.85
6218;BME280;3142;48.206;11.550;2023-02-16T04:50:23;96754.97;;;1.11;74.21
6218;BME280;3142;48.206;11.550;2023-02-16T04:52:50;96760.00;;;1.02;74.13
6218;BME280;3142;48.206;11.550;2023-02-16T04:55:17;96758.47;;;0.99;74.18
6218;BME280;3142;48.206;11.550;2023-02-16T04:57:44;96755.66;;;1.02;74.27
6218;BME280;3142;48.206;11.550;2023-02-16T05:00:12;96759.63;;;1.06;74.28
6218;BME280;3142;48.206;11.550;2023-02-16T05:02:39;96764.09;;;1.04;74.07
6218;BME280;3142;48.206;11.550;2023-02-16T05:05:06;96763.28;;;1.15;74.56
6218;BME280;3142;48.206;11.550;2023-02-16T05:07:33;96760.75;;;1.26;73.77
6218;BME280;3142;48.206;11.550;2023-02-16T05:10:00;96765.28;;;1.34;73.33
6218;BME280;3142;48.206;11.550;2023-02-16T05:12:28;96759.91;;;1.37;73.35
6218;BME280;3142;48.206;11.550;2023-02-16T05:15:11;96759.91;;;1.48;73.56
6218;BME280;3142;48.206;11.550;2023-02-16T05:17:38;96758.84;;;1.51;73.04
6218;BME280;3142;48.206;11.550;2023-02-16T05:20:05;96757.81;;;1.53;73.09
6218;BME280;3142;48.206;11.550;2023-02-16T05:22:32;96752.31;;;1.58;72.52
6218;BME280;3142;48.206;11.550;2023-02-16T05:24:59;96758.16;;;1.60;72.39
6218;BME280;3142;48.206;11.550;2023-02-16T05:27:28;96759.09;;;1.59;72.37
6218;BME280;3142;48.206;11.550;2023-02-16T05:29:55;96754.50;;;1.62;72.37
6218;BME280;3142;48.206;11.550;2023-02-16T05:32:22;96756.06;;;1.65;71.77
6218;BME280;3142;48.206;11.550;2023-02-16T05:34:49;96762.38;;;1.61;71.46
6218;BME280;3142;48.206;11.550;2023-02-16T05:37:17;96768.34;;;1.61;70.67
6218;BME280;3142;48.206;11.550;2023-02-16T05:39:44;96773.75;;;1.47;71.51
6218;BME280;3142;48.206;11.550;2023-02-16T05:42:10;96775.97;;;1.40;71.50
6218;BME280;3142;48.206;11.550;2023-02-16T05:44:38;96781.25;;;1.39;71.54
6218;BME280;3142;48.206;11.550;2023-02-16T05:47:04;96779.13;;;1.33;71.53
6218;BME280;3142;48.206;11.550;2023-02-16T05:49:31;96782.41;;;1.35;71.52
6218;BME280;3142;48.206;11.550;2023-02-16T05:51:57;96777.63;;;1.41;71.73
6218;BME280;3142;48.206;11.550;2023-02-16T05:54:24;96787.69;;;1.44;71.92
6218;BME280;3142;48.206;11.550;2023-02-16T05:56:52;96783.47;;;1.43;71.78
6218;BME280;3142;48.206;11.550;2023-02-16T05:59:18;96783.22;;;1.46;72.17
6218;BME280;3142;48.206;11.550;2023-02-16T06:01:46;96782.91;;;1.51;71.89
6218;BME280;3142;48.206;11.550;2023-02-16T06:04:12;96782.19;;;1.49;71.97
6218;BME280;3142;48.206;11.550;2023-02-16T06:06:40;96787.66;;;1.33;72.12
6218;BME280;3142;48.206;11.550;2023-02-16T06:09:07;96784.88;;;1.25;72.20
6218;BME280;3142;48.206;11.550;2023-02-16T06:11:34;96785.91;;;1.23;72.23
6218;BME280;3142;48.206;11.550;2023-02-16T06:14:06;96785.44;;;1.17;71.94
6218;BME280;3142;48.206;11.550;2023-02-16T06:16:33;96795.00;;;1.04;71.93
6218;BME280;3142;48.206;11.550;2023-02-16T06:19:02;96789.81;;;0.93;72.63
6218;BME280;3142;48.206;11.550;2023-02-16T06:21:29;96794.84;;;0.95;72.88
6218;BME280;3142;48.206;11.550;2023-02-16T06:23:55;96794.97;;;0.93;72.95
6218;BME280;3142;48.206;11.550;2023-02-16T06:26:22;96795.25;;;1.01;73.35
6218;BME280;3142;48.206;11.550;2023-02-16T06:28:48;96799.50;;;1.25;73.18
6218;BME280;3142;48.206;11.550;2023-02-16T06:31:15;96799.84;;;1.31;73.03
6218;BME280;3142;48.206;11.550;2023-02-16T06:33:41;96809.59;;;1.50;72.50
6218;BME280;3142;48.206;11.550;2023-02-16T06:36:10;96812.53;;;1.57;72.71
6218;BME280;3142;48.206;11.550;2023-02-16T06:38:36;96822.03;;;1.56;72.69
6218;BME280;3142;48.206;11.550;2023-02-16T06:41:03;96821.44;;;1.64;72.08
6218;BME280;3142;48.206;11.550;2023-02-16T06:43:30;96822.16;;;1.66;72.12
6218;BME280;3142;48.206;11.550;2023-02-16T06:45:56;96821.34;;;1.65;72.06
6218;BME280;3142;48.206;11.550;2023-02-16T06:48:23;96826.97;;;1.70;71.61
6218;BME280;3142;48.206;11.550;2023-02-16T06:50:49;96823.78;;;1.78;71.90
6218;BME280;3142;48.206;11.550;2023-02-16T06:53:17;96827.31;;;1.88;71.14
6218;BME280;3142;48.206;11.550;2023-02-16T06:55:44;96827.88;;;2.03;71.22
6218;BME280;3142;48.206;11.550;2023-02-16T06:58:11;96825.53;;;2.11;69.96
6218;BME280;3142;48.206;11.550;2023-02-16T07:00:37;96830.56;;;2.35;70.41
6218;BME280;3142;48.206;11.550;2023-02-16T07:03:04;96826.13;;;2.58;69.18
6218;BME280;3142;48.206;11.550;2023-02-16T07:05:30;96823.59;;;2.79;68.86
6218;BME280;3142;48.206;11.550;2023-02-16T07:07:57;96820.81;;;2.71;69.62
6218;BME280;3142;48.206;11.550;2023-02-16T07:10:25;96827.41;;;2.95;68.22
6218;BME280;3142;48.206;11.550;2023-02-16T07:12:51;96826.41;;;3.28;67.97
6218;BME280;3142;48.206;11.550;2023-02-16T07:15:17;96819.06;;;3.54;66.84
6218;BME280;3142;48.206;11.550;2023-02-16T07:17:44;96821.69;;;3.85;66.68
6218;BME280;3142;48.206;11.550;2023-02-16T07:20:11;96827.69;;;3.95;65.75
6218;BME280;3142;48.206;11.550;2023-02-16T07:22:37;96834.34;;;3.88;66.42
6218;BME280;3142;48.206;11.550;2023-02-16T07:25:04;96827.22;;;3.80;66.72
6218;BME280;3142;48.206;11.550;2023-02-16T07:27:32;96828.91;;;3.91;66.58
6218;BME280;3142;48.206;11.550;2023-02-16T07:29:59;96836.84;;;3.99;66.66
6218;BME280;3142;48.206;11.550;2023-02-16T07:32:28;96835.56;;;3.84;67.16
6218;BME280;3142;48.206;11.550;2023-02-16T07:34:54;96835.03;;;3.90;67.08
6218;BME280;3142;48.206;11.550;2023-02-16T07:37:20;96828.97;;;4.10;66.93
6218;BME280;3142;48.206;11.550;2023-02-16T07:39:47;96829.31;;;4.27;67.11
6218;BME280;3142;48.206;11.550;2023-02-16T07:42:13;96826.75;;;4.46;67.10
6218;BME280;3142;48.206;11.550;2023-02-16T07:44:41;96826.09;;;4.73;66.43
6218;BME280;3142;48.206;11.550;2023-02-16T07:47:07;96828.84;;;4.91;65.49
6218;BME280;3142;48.206;11.550;2023-02-16T07:49:34;96834.81;;;5.30;65.11
6218;BME280;3142;48.206;11.550;2023-02-16T07:52:00;96837.69;;;5.17;65.46
6218;BME280;3142;48.206;11.550;2023-02-16T07:54:27;96840.44;;;5.16;66.42
6218;BME280;3142;48.206;11.550;2023-02-16T08:00:04;96829.66;;;4.91;67.04
6218;BME280;3142;48.206;11.550;2023-02-16T08:02:32;96840.59;;;4.85;67.41
6218;BME280;3142;48.206;11.550;2023-02-16T08:04:58;96841.53;;;4.84;67.80
6218;BME280;3142;48.206;11.550;2023-02-16T08:07:26;96836.91;;;4.97;67.57
6218;BME280;3142;48.206;11.550;2023-02-16T08:09:52;96845.88;;;5.32;67.25
6218;BME280;3142;48.206;11.550;2023-02-16T08:12:19;96845.38;;;5.75;65.87
6218;BME280;3142;48.206;11.550;2023-02-16T08:14:46;96846.56;;;6.28;65.00
6218;BME280;3142;48.206;11.550;2023-02-16T08:17:13;96843.91;;;6.65;64.53
6218;BME280;3142;48.206;11.550;2023-02-16T08:19:40;96850.09;;;6.81;63.55
6218;BME280;3142;48.206;11.550;2023-02-16T08:22:07;96844.31;;;6.88;63.67
6218;BME280;3142;48.206;11.550;2023-02-16T08:24:34;96840.28;;;6.93;63.53
6218;BME280;3142;48.206;11.550;2023-02-16T08:27:03;96847.06;;;6.86;63.99
6218;BME280;3142;48.206;11.550;2023-02-16T08:29:30;96845.63;;;6.92;64.37
6218;BME280;3142;48.206;11.550;2023-02-16T08:31:57;96849.00;;;7.02;64.89
6218;BME280;3142;48.206;11.550;2023-02-16T08:34:25;96847.25;;;7.10;64.64
6218;BME280;3142;48.206;11.550;2023-02-16T08:36:53;96847.53;;;7.25;64.97
6218;BME280;3142;48.206;11.550;2023-02-16T08:39:22;96850.31;;;7.24;65.09
6218;BME280;3142;48.206;11.550;2023-02-16T08:41:50;96841.59;;;7.33;64.52
6218;BME280;3142;48.206;11.550;2023-02-16T08:44:18;96847.38;;;7.45;64.91
6218;BME280;3142;48.206;11.550;2023-02-16T08:46:45;96845.88;;;7.60;65.92
6218;BME280;3142;48.206;11.550;2023-02-16T08:49:13;96843.38;;;7.76;65.45
6218;BME280;3142;48.206;11.550;2023-02-16T08:51:44;96845.66;;;7.79;66.19
6218;BME280;3142;48.206;11.550;2023-02-16T08:54:15;96834.47;;;7.87;65.73
6218;BME280;3142;48.206;11.550;2023-02-16T08:56:42;96844.56;;;7.82;65.76
6218;BME280;3142;48.206;11.550;2023-02-16T08:59:11;96841.50;;;7.94;66.26
6218;BME280;3142;48.206;11.550;2023-02-16T09:01:37;96837.22;;;8.11;65.00
6218;BME280;3142;48.206;11.550;2023-02-16T09:04:05;96833.31;;;8.15;65.94
6218;BME280;3142;48.206;11.550;2023-02-16T09:06:35;96841.19;;;8.23;64.74
6218;BME280;3142;48.206;11.550;2023-02-16T09:09:03;96839.03;;;8.53;64.27
6218;BME280;3142;48.206;11.550;2023-02-16T09:11:30;96838.75;;;8.64;63.32
6218;BME280;3142;48.206;11.550;2023-02-16T09:13:56;96843.47;;;8.77;64.91
6218;BME280;3142;48.206;11.550;2023-02-16T09:16:23;96842.38;;;8.87;63.72
6218;BME280;3142;48.206;11.550;2023-02-16T09:18:52;96841.09;;;9.00;63.71
6218;BME280;3142;48.206;11.550;2023-02-16T09:21:22;96829.50;;;9.27;62.61
6218;BME280;3142;48.206;11.550;2023-02-16T09:23:50;96844.03;;;9.45;63.23
6218;BME280;3142;48.206;11.550;2023-02-16T09:26:19;96837.19;;;9.61;62.22
6218;BME280;3142;48.206;11.550;2023-02-16T09:28:47;96837.63;;;9.72;62.25
6218;BME280;3142;48.206;11.550;2023-02-16T09:31:16;96831.97;;;10.24;61.31
6218;BME280;3142;48.206;11.550;2023-02-16T09:33:44;96832.13;;;10.62;59.63
6218;BME280;3142;48.206;11.550;2023-02-16T09:36:12;96837.53;;;10.91;58.77
6218;BME280;3142;48.206;11.550;2023-02-16T09:38:39;96832.72;;;11.26;58.85
6218;BME280;3142;48.206;11.550;2023-02-16T09:41:07;96832.06;;;11.62;57.88
6218;BME280;3142;48.206;11.550;2023-02-16T09:43:47;96839.84;;;11.93;56.65
6218;BME280;3142;48.206;11.550;2023-02-16T09:46:17;96837.75;;;12.18;56.21
6218;BME280;3142;48.206;11.550;2023-02-16T09:48:46;96828.97;;;12.40;54.62
6218;BME280;3142;48.206;11.550;2023-02-16T09:51:17;96832.16;;;12.50;54.33
6218;BME280;3142;48.206;11.550;2023-02-16T09:53:50;96824.53;;;12.55;53.73
6218;BME280;3142;48.206;11.550;2023-02-16T09:56:25;96827.34;;;12.90;53.02
6218;BME280;3142;48.206;11.550;2023-02-16T09:58:57;96831.53;;;13.05;51.71
6218;BME280;3142;48.206;11.550;2023-02-16T10:01:31;96828.59;;;13.15;52.14
6218;BME280;3142;48.206;11.550;2023-02-16T10:04:12;96829.41;;;12.94;51.05
6218;BME280;3142;48.206;11.550;2023-02-16T10:06:52;96830.94;;;12.53;53.22
6218;BME280;3142;48.206;11.550;2023-02-16T10:09:25;96833.47;;;12.46;51.38
6218;BME280;3142;48.206;11.550;2023-02-16T10:11:59;96833.66;;;12.44;52.21
6218;BME280;3142;48.206;11.550;2023-02-16T10:14:31;96832.41;;;12.91;51.63
6218;BME280;3142;48.206;11.550;2023-02-16T10:17:09;96830.53;;;13.07;51.62
6218;BME280;3142;48.206;11.550;2023-02-16T10:19:43;96820.63;;;13.23;50.83
6218;BME280;3142;48.206;11.550;2023-02-16T10:22:13;96823.31;;;13.30;50.12
6218;BME280;3142;48.206;11.550;2023-02-16T10:24:46;96825.06;;;13.44;48.59
6218;BME280;3142;48.206;11.550;2023-02-16T10:27:16;96822.25;;;13.46;48.54
6218;BME280;3142;48.206;11.550;2023-02-16T10:29:45;96820.72;;;13.58;49.32
6218;BME280;3142;48.206;11.550;2023-02-16T10:32:17;96821.38;;;13.94;49.25
6218;BME280;3142;48.206;11.550;2023-02-16T10:34:49;96815.91;;;14.31;48.12
6218;BME280;3142;48.206;11.550;2023-02-16T10:37:32;96815.06;;;14.58;47.10
6218;BME280;3142;48.206;11.550;2023-02-16T10:40:19;96809.56;;;14.53;47.18
6218;BME280;3142;48.206;11.550;2023-02-16T10:42:50;96818.94;;;14.28;46.62
6218;BME280;3142;48.206;11.550;2023-02-16T10:45:26;96812.50;;;14.37;46.84
6218;BME280;3142;48.206;11.550;2023-02-16T10:47:56;96819.16;;;14.33;47.23
6218;BME280;3142;48.206;11.550;2023-02-16T10:50:25;96811.72;;;14.02;45.03
6218;BME280;3142;48.206;11.550;2023-02-16T10:52:57;96818.03;;;13.79;44.94
6218;BME280;3142;48.206;11.550;2023-02-16T10:55:24;96814.72;;;13.43;45.40
6218;BME280;3142;48.206;11.550;2023-02-16T10:57:53;96810.44;;;12.99;46.91
6218;BME280;3142;48.206;11.550;2023-02-16T11:00:26;96808.19;;;12.96;46.52
6218;BME280;3142;48.206;11.550;2023-02-16T11:02:55;96814.56;;;13.23;44.34
6218;BME280;3142;48.206;11.550;2023-02-16T11:05:32;96806.50;;;13.10;45.60
6218;BME280;3142;48.206;11.550;2023-02-16T11:07:59;96809.00;;;12.96;44.57
6218;BME280;3142;48.206;11.550;2023-02-16T11:10:35;96804.28;;;13.28;43.93
6218;BME280;3142;48.206;11.550;2023-02-16T11:13:02;96799.28;;;13.89;43.98
6218;BME280;3142;48.206;11.550;2023-02-16T11:15:30;96788.22;;;14.00;42.56
6218;BME280;3142;48.206;11.550;2023-02-16T11:18:01;96791.47;;;14.02;42.66
6218;BME280;3142;48.206;11.550;2023-02-16T11:20:31;96790.19;;;14.26;42.73
6218;BME280;3142;48.206;11.550;2023-02-16T11:23:20;96782.09;;;14.34;43.14
6218;BME280;3142;48.206;11.550;2023-02-16T11:25:53;96783.84;;;14.55;42.28
6218;BME280;3142;48.206;11.550;2023-02-16T11:28:25;96781.31;;;14.95;41.14
6218;BME280;3142;48.206;11.550;2023-02-16T11:30:58;96777.06;;;15.20;40.71
6218;BME280;3142;48.206;11.550;2023-02-16T11:33:26;96771.63;;;15.08;40.83
6218;BME280;3142;48.206;11.550;2023-02-16T11:35:54;96769.97;;;15.01;40.23
6218;BME280;3142;48.206;11.550;2023-02-16T11:38:29;96760.66;;;15.18;39.84
6218;BME280;3142;48.206;11.550;2023-02-16T11:40:57;96772.81;;;15.46;38.93
6218;BME280;3142;48.206;11.550;2023-02-16T11:43:26;96762.69;;;15.56;38.05
6218;BME280;3142;48.206;11.550;2023-02-16T11:46:01;96753.78;;;15.63;38.08
6218;BME280;3142;48.206;11.550;2023-02-16T11:48:30;96749.50;;;15.69;37.33
6218;BME280;3142;48.206;11.550;2023-02-16T11:50:58;96746.44;;;15.79;37.40
6218;BME280;3142;48.206;11.550;2023-02-16T11:53:27;96747.84;;;15.81;37.09
6218;BME280;3142;48.206;11.550;2023-02-16T11:56:13;96743.78;;;15.85;36.89
6218;BME280;3142;48.206;11.550;2023-02-16T11:58:42;96738.28;;;15.87;36.67
6218;BME280;3142;48.206;11.550;2023-02-16T12:01:19;96739.94;;;15.81;35.94
6218;BME280;3142;48.206;11.550;2023-02-16T12:03:55;96733.84;;;15.81;36.65
6218;BME280;3142;48.206;11.550;2023-02-16T12:06:33;96724.53;;;15.78;36.34
6218;BME280;3142;48.206;11.550;2023-02-16T12:09:15;96718.22;;;15.79;36.46
6218;BME280;3142;48.206;11.550;2023-02-16T12:11:52;96721.69;;;15.80;36.43
6218;BME280;3142;48.206;11.550;2023-02-16T12:14:29;96715.59;;;15.79;35.65
6218;BME280;3142;48.206;11.550;2023-02-16T12:17:06;96712.53;;;15.76;35.62
6218;BME280;3142;48.206;11.550;2023-02-16T12:19:40;96711.13;;;15.73;35.45
6218;BME280;3142;48.206;11.550;2023-02-16T12:22:19;96705.88;;;15.66;34.80
6218;BME280;3142;48.206;11.550;2023-02-16T12:24:57;96700.59;;;15.60;35.15
6218;BME280;3142;48.206;11.550;2023-02-16T12:27:32;96699.19;;;15.51;34.93
6218;BME280;3142;48.206;11.550;2023-02-16T12:30:11;96700.78;;;15.45;35.24
6218;BME280;3142;48.206;11.550;2023-02-16T12:32:52;96692.09;;;15.38;35.92
6218;BME280;3142;48.206;11.550;2023-02-16T12:35:40;96694.72;;;15.38;36.83
6218;BME280;3142;48.206;11.550;2023-02-16T12:38:19;96693.72;;;15.39;37.23
6218;BME280;3142;48.206;11.550;2023-02-16T12:40:59;96697.97;;;15.40;36.89
6218;BME280;3142;48.206;11.550;2023-02-16T12:43:34;96698.97;;;15.32;36.13
6218;BME280;3142;48.206;11.550;2023-02-16T12:46:08;96692.72;;;15.27;35.98
6218;BME280;3142;48.206;11.550;2023-02-16T12:48:42;96687.03;;;15.23;35.31
6218;BME280;3142;48.206;11.550;2023-02-16T12:51:14;96681.53;;;15.31;35.62
6218;BME280;3142;48.206;11.550;2023-02-16T12:53:46;96683.16;;;15.32;35.09
6218;BME280;3142;48.206;11.550;2023-02-16T12:56:19;96677.09;;;15.32;34.88
6218;BME280;3142;48.206;11.550;2023-02-16T12:58:48;96671.63;;;15.27;34.66
6218;BME280;3142;48.206;11.550;2023-02-16T13:01:22;96673.66;;;15.25;33.98
6218;BME280;3142;48.206;11.550;2023-02-16T13:03:55;96670.22;;;15.24;34.60
6218;BME280;3142;48.206;11.550;2023-02-16T13:06:27;96671.03;;;15.25;34.27
6218;BME280;3142;48.206;11.550;2023-02-16T13:08:59;96672.22;;;15.29;33.67
6218;BME280;3142;48.206;11.550;2023-02-16T13:11:33;96668.81;;;15.22;33.72
6218;BME280;3142;48.206;11.550;2023-02-16T13:14:04;96662.72;;;15.15;33.79
6218;BME280;3142;48.206;11.550;2023-02-16T13:16:38;96667.78;;;15.16;34.74
6218;BME280;3142;48.206;11.550;2023-02-16T13:19:09;96658.44;;;15.20;34.50
6218;BME280;3142;48.206;11.550;2023-02-16T13:22:22;96662.69;;;15.21;34.45
6218;BME280;3142;48.206;11.550;2023-02-16T13:25:11;96656.59;;;15.21;34.21
6218;BME280;3142;48.206;11.550;2023-02-16T13:27:52;96658.66;;;15.25;35.16
6218;BME280;3142;48.206;11.550;2023-02-16T13:30:38;96653.75;;;15.29;34.79
6218;BME280;3142;48.206;11.550;2023-02-16T13:33:23;96656.63;;;15.27;34.65
6218;BME280;3142;48.206;11.550;2023-02-16T13:36:03;96652.56;;;15.25;34.78
6218;BME280;3142;48.206;11.550;2023-02-16T13:38:53;96664.31;;;15.29;35.08
6218;BME280;3142;48.206;11.550;2023-02-16T13:41:44;96655.38;;;15.30;35.09